Time;durP1;ratioP1;P1;durP2;ratioP2;P2;SDS_P1;SDS_P2;PMS_P1;PMS_P2;Temp;Humidity;BMP_temperature;BMP_pressure;BME280_temperature;BME280_humidity;BME280_pressure;Samples;Min_cycle;Max_cycle;Signal;HPM_P1;HPM_P2
2023/09/07 00:00:30;;;;;;;5.78;3.15;;;19.90;99.90;;;;;;5092499;28;20406;-77
2023/09/07 00:02:56;;;;;;;6.05;3.60;;;19.90;99.90;;;;;;5100637;28;20076;-77
2023/09/07 00:05:21;;;;;;;7.18;3.65;;;19.90;99.90;;;;;;5089187;28;20412;-77
2023/09/07 00:07:47;;;;;;;9.05;3.83;;;19.90;99.90;;;;;;5089065;28;20398;-77
2023/09/07 00:10:13;;;;;;;5.05;3.67;;;19.80;99.90;;;;;;5089492;28;20032;-77
2023/09/07 00:12:39;;;;;;;8.95;3.78;;;19.80;99.90;;;;;;5091349;28;20080;-77
2023/09/07 00:15:10;;;;;;;5.15;3.70;;;19.80;99.90;;;;;;5088472;28;20140;-77
2023/09/07 00:17:36;;;;;;;9.10;3.53;;;19.80;99.90;;;;;;5090634;28;20217;-77
2023/09/07 00:20:10;;;;;;;8.70;3.80;;;19.80;99.90;;;;;;5093894;28;20040;-78
2023/09/07 00:22:36;;;;;;;8.38;4.00;;;19.80;99.90;;;;;;5087789;28;20064;-78
2023/09/07 00:25:04;;;;;;;6.53;3.53;;;19.70;99.90;;;;;;5092717;28;20051;-77
2023/09/07 00:27:30;;;;;;;7.10;3.75;;;19.70;99.90;;;;;;5086756;28;20137;-77
2023/09/07 00:29:56;;;;;;;8.98;3.63;;;19.70;99.90;;;;;;5086999;28;20214;-77
2023/09/07 00:32:21;;;;;;;6.05;3.83;;;19.70;99.90;;;;;;5091591;28;20039;-76
2023/09/07 00:34:47;;;;;;;6.43;3.42;;;19.70;99.90;;;;;;5082368;28;20472;-77
2023/09/07 00:37:13;;;;;;;5.68;4.00;;;19.70;99.90;;;;;;5083095;28;20067;-77
2023/09/07 00:39:38;;;;;;;6.00;3.78;;;19.70;99.90;;;;;;5092609;28;20072;-77
2023/09/07 00:42:04;;;;;;;7.30;3.40;;;19.60;99.90;;;;;;5077643;28;20045;-77
2023/09/07 00:44:30;;;;;;;8.23;3.50;;;19.60;99.90;;;;;;5086306;28;20501;-77
2023/09/07 00:46:58;;;;;;;7.85;3.42;;;19.60;99.90;;;;;;5080882;28;20055;-77
2023/09/07 00:49:25;;;;;;;6.15;3.78;;;19.60;99.90;;;;;;5082822;28;20048;-78
2023/09/07 00:51:52;;;;;;;6.35;3.83;;;19.50;99.90;;;;;;5082951;28;20036;-78
2023/09/07 00:54:18;;;;;;;8.02;4.15;;;19.50;99.90;;;;;;5087234;28;20166;-77
2023/09/07 00:56:44;;;;;;;8.55;4.05;;;19.40;99.90;;;;;;5083788;28;20178;-77
2023/09/07 00:59:11;;;;;;;6.93;3.63;;;19.40;99.90;;;;;;5082599;28;20608;-78
2023/09/07 01:01:37;;;;;;;5.68;4.03;;;19.40;99.90;;;;;;5084956;28;20799;-78
2023/09/07 01:04:03;;;;;;;7.13;3.67;;;19.30;99.90;;;;;;5080819;28;20178;-78
2023/09/07 01:06:28;;;;;;;5.60;3.80;;;19.30;99.90;;;;;;5082595;28;20474;-78
2023/09/07 01:08:57;;;;;;;7.47;3.90;;;19.30;99.90;;;;;;5081185;28;20044;-78
2023/09/07 01:11:23;;;;;;;7.07;4.13;;;19.20;99.90;;;;;;5088095;28;20051;-77
2023/09/07 01:13:50;;;;;;;7.38;4.13;;;19.20;99.90;;;;;;5081640;28;20048;-78
2023/09/07 01:16:16;;;;;;;6.35;4.28;;;19.20;99.90;;;;;;5080209;28;20498;-77
2023/09/07 01:18:42;;;;;;;11.52;4.15;;;19.10;99.90;;;;;;5088934;28;20044;-77
2023/09/07 01:21:09;;;;;;;9.32;4.15;;;19.10;99.90;;;;;;5092047;28;20794;-78
2023/09/07 01:23:41;;;;;;;6.03;4.10;;;19.10;99.90;;;;;;5082061;28;20057;-78
2023/09/07 01:26:08;;;;;;;7.30;4.00;;;19.10;99.90;;;;;;5071933;28;20079;-78
2023/09/07 01:28:35;;;;;;;8.95;4.43;;;19.00;99.90;;;;;;5089572;28;20044;-77
2023/09/07 01:31:04;;;;;;;5.00;3.85;;;19.00;99.90;;;;;;5091056;28;20139;-77
2023/09/07 01:33:29;;;;;;;8.38;3.83;;;19.00;99.90;;;;;;5068785;28;20036;-76
2023/09/07 01:35:55;;;;;;;5.00;3.78;;;19.00;99.90;;;;;;5090211;28;20127;-77
2023/09/07 01:38:21;;;;;;;7.60;4.00;;;18.90;99.90;;;;;;5090660;28;20067;-77
2023/09/07 01:40:47;;;;;;;5.28;4.07;;;18.90;99.90;;;;;;5085231;28;20494;-77
2023/09/07 01:43:12;;;;;;;4.95;4.07;;;18.90;99.90;;;;;;5089738;28;20486;-77
2023/09/07 01:45:38;;;;;;;5.88;4.18;;;18.90;99.90;;;;;;5091628;28;20449;-77
2023/09/07 01:48:08;;;;;;;6.93;4.10;;;18.90;99.90;;;;;;5080037;28;20036;-77
2023/09/07 01:50:34;;;;;;;6.88;4.55;;;18.90;99.90;;;;;;5078704;28;20045;-77
2023/09/07 01:52:59;;;;;;;11.40;4.40;;;18.80;99.90;;;;;;5083605;28;20085;-78
2023/09/07 01:55:27;;;;;;;7.15;4.40;;;18.80;99.90;;;;;;5088935;28;20037;-77
2023/09/07 01:57:52;;;;;;;6.25;4.35;;;18.80;99.90;;;;;;5080742;28;20047;-77
2023/09/07 02:00:18;;;;;;;6.20;4.20;;;18.70;99.90;;;;;;5088989;28;20379;-77
2023/09/07 02:02:44;;;;;;;9.70;4.70;;;18.70;99.90;;;;;;5095346;28;20040;-77
2023/09/07 02:05:10;;;;;;;8.52;4.53;;;18.70;99.90;;;;;;5128588;28;20040;-78
2023/09/07 02:07:35;;;;;;;7.68;4.60;;;18.70;99.90;;;;;;5080558;28;20109;-77
2023/09/07 02:10:03;;;;;;;12.57;4.97;;;18.60;99.90;;;;;;5089742;28;20041;-77
2023/09/07 02:12:29;;;;;;;;;;;18.60;99.90;;;;;;5086478;28;20045;-77
2023/09/07 02:14:56;;;;;;;8.82;4.30;;;18.60;99.90;;;;;;5127347;27;20016;-77
2023/09/07 02:17:21;;;;;;;7.10;4.70;;;18.50;99.90;;;;;;5096058;28;20041;-76
2023/09/07 02:19:47;;;;;;;6.78;4.70;;;18.50;99.90;;;;;;5092643;28;20629;-77
2023/09/07 02:22:13;;;;;;;7.15;4.80;;;18.50;99.90;;;;;;5094198;28;20060;-77
2023/09/07 02:24:38;;;;;;;10.23;4.50;;;18.50;99.90;;;;;;5085464;28;20423;-77
2023/09/07 02:27:04;;;;;;;7.20;4.53;;;18.50;99.90;;;;;;5092214;28;20044;-77
2023/09/07 02:29:30;;;;;;;10.80;4.53;;;18.50;99.90;;;;;;5087779;28;20043;-77
2023/09/07 02:31:56;;;;;;;8.88;5.18;;;18.40;99.90;;;;;;5097050;28;20128;-77
2023/09/07 02:34:22;;;;;;;8.55;5.07;;;18.40;99.90;;;;;;5085957;28;20129;-77
2023/09/07 02:36:48;;;;;;;6.82;5.47;;;18.40;99.90;;;;;;5099143;28;20036;-76
2023/09/07 02:39:13;;;;;;;8.68;4.97;;;18.40;99.90;;;;;;5099638;28;20039;-77
2023/09/07 02:41:39;;;;;;;7.82;4.82;;;18.30;99.90;;;;;;5104237;28;20066;-77
2023/09/07 02:44:05;;;;;;;7.53;4.80;;;18.30;99.90;;;;;;5097648;28;20110;-77
2023/09/07 02:46:31;;;;;;;7.20;5.07;;;18.30;99.90;;;;;;5110965;28;20451;-77
2023/09/07 02:48:57;;;;;;;10.80;5.10;;;18.30;99.90;;;;;;5099614;28;20053;-77
2023/09/07 02:51:24;;;;;;;8.95;4.65;;;18.20;99.90;;;;;;5100548;28;20119;-77
2023/09/07 02:53:50;;;;;;;9.70;5.07;;;18.20;99.90;;;;;;5101597;28;20040;-77
2023/09/07 02:56:16;;;;;;;5.80;4.72;;;18.20;99.90;;;;;;5105317;28;20078;-77
2023/09/07 02:58:41;;;;;;;8.20;4.90;;;18.20;99.90;;;;;;5097426;28;20036;-77
2023/09/07 03:01:10;;;;;;;8.18;5.13;;;18.10;99.90;;;;;;5090047;28;20040;-77
2023/09/07 03:03:36;;;;;;;7.88;5.25;;;18.10;99.90;;;;;;5095905;28;20052;-77
2023/09/07 03:06:12;;;;;;;7.97;5.30;;;18.10;99.90;;;;;;5094137;28;20045;-77
2023/09/07 03:08:41;;;;;;;9.10;5.50;;;18.10;99.90;;;;;;5099836;28;20111;-77
2023/09/07 03:11:08;;;;;;;6.60;5.05;;;18.00;99.90;;;;;;5102405;28;20094;-77
2023/09/07 03:13:33;;;;;;;10.00;5.60;;;18.00;99.90;;;;;;5091488;28;20100;-77
2023/09/07 03:16:00;;;;;;;7.43;5.35;;;18.00;99.90;;;;;;5082365;28;20083;-78
2023/09/07 03:18:26;;;;;;;8.77;5.50;;;18.00;99.90;;;;;;5092940;28;20088;-77
2023/09/07 03:20:55;;;;;;;9.35;5.10;;;17.90;99.90;;;;;;5094563;28;20055;-77
2023/09/07 03:23:21;;;;;;;6.70;5.68;;;17.90;99.90;;;;;;5093167;28;20058;-76
2023/09/07 03:25:46;;;;;;;8.70;5.72;;;17.90;99.90;;;;;;5081071;28;20045;-77
2023/09/07 03:28:12;;;;;;;10.50;5.53;;;17.90;99.90;;;;;;5085410;28;20040;-78
2023/09/07 03:30:38;;;;;;;9.77;5.70;;;17.90;99.90;;;;;;5091684;28;20057;-78
2023/09/07 03:33:05;;;;;;;7.82;5.90;;;17.90;99.90;;;;;;5082782;28;20044;-78
2023/09/07 03:35:31;;;;;;;9.55;5.88;;;17.90;99.90;;;;;;5080942;28;20040;-77
2023/09/07 03:37:57;;;;;;;8.15;6.13;;;17.80;99.90;;;;;;5088761;28;20440;-77
2023/09/07 03:40:23;;;;;;;8.90;6.03;;;17.80;99.90;;;;;;5090046;28;20115;-77
2023/09/07 03:42:49;;;;;;;8.40;6.13;;;17.80;99.90;;;;;;5076456;28;20455;-78
2023/09/07 03:45:14;;;;;;;6.43;5.60;;;17.70;99.90;;;;;;5089747;28;20397;-78
2023/09/07 03:47:41;;;;;;;11.00;6.82;;;17.70;99.90;;;;;;5079716;28;20040;-78
2023/09/07 03:50:07;;;;;;;8.10;6.03;;;17.70;99.90;;;;;;5087164;28;20036;-78
2023/09/07 03:52:33;;;;;;;10.10;5.90;;;17.70;99.90;;;;;;5087612;28;20040;-77
2023/09/07 03:55:00;;;;;;;7.25;5.55;;;17.60;99.90;;;;;;5089374;28;20446;-77
2023/09/07 03:57:27;;;;;;;8.50;6.40;;;17.60;99.90;;;;;;5077030;28;20041;-77
2023/09/07 03:59:57;;;;;;;8.32;6.32;;;17.60;99.90;;;;;;5086433;28;20036;-77
2023/09/07 04:02:23;;;;;;;6.60;5.88;;;17.60;99.90;;;;;;5085302;28;20486;-77
2023/09/07 04:04:53;;;;;;;11.80;6.47;;;17.60;99.90;;;;;;5077416;28;20140;-78
2023/09/07 04:07:19;;;;;;;10.73;6.68;;;17.50;99.90;;;;;;5090237;28;20047;-78
2023/09/07 04:09:50;;;;;;;10.20;6.32;;;17.60;99.90;;;;;;5090555;28;20059;-78
2023/09/07 04:12:15;;;;;;;9.02;6.88;;;17.60;99.90;;;;;;5075467;28;20394;-78
2023/09/07 04:14:42;;;;;;;10.75;7.10;;;17.60;99.90;;;;;;5083582;28;20043;-78
2023/09/07 04:17:08;;;;;;;9.57;6.70;;;17.60;99.90;;;;;;5089791;28;20127;-78
2023/09/07 04:19:33;;;;;;;8.05;6.85;;;17.60;99.90;;;;;;5089659;28;20406;-78
2023/09/07 04:21:59;;;;;;;11.10;6.80;;;17.60;99.90;;;;;;5085921;28;20327;-77
2023/09/07 04:24:27;;;;;;;9.23;6.93;;;17.60;99.90;;;;;;5092693;28;20502;-77
2023/09/07 04:26:53;;;;;;;10.07;6.97;;;17.60;99.90;;;;;;5076204;28;20241;-77
2023/09/07 04:29:18;;;;;;;9.25;7.25;;;17.60;99.90;;;;;;5089578;28;20108;-77
2023/09/07 04:31:44;;;;;;;11.00;7.47;;;17.60;99.90;;;;;;5089276;28;20466;-77
2023/09/07 04:34:10;;;;;;;10.95;7.18;;;17.60;99.90;;;;;;5089207;28;20735;-78
2023/09/07 04:36:35;;;;;;;12.23;7.45;;;17.60;99.90;;;;;;5093087;28;20036;-78
2023/09/07 04:39:03;;;;;;;13.07;7.70;;;17.60;99.90;;;;;;5091766;28;20371;-78
2023/09/07 04:41:29;;;;;;;9.95;8.27;;;17.60;99.90;;;;;;5083088;28;20040;-77
2023/09/07 04:43:54;;;;;;;10.18;7.70;;;17.50;99.90;;;;;;5083734;28;20375;-77
2023/09/07 04:46:23;;;;;;;9.18;7.57;;;17.50;99.90;;;;;;5085865;28;20051;-77
2023/09/07 04:48:49;;;;;;;11.63;7.55;;;17.60;99.90;;;;;;5084216;28;20390;-78
2023/09/07 04:51:14;;;;;;;8.52;7.00;;;17.50;99.90;;;;;;5082630;28;20044;-78
2023/09/07 04:53:40;;;;;;;13.10;7.50;;;17.50;99.90;;;;;;5090213;28;20128;-79
2023/09/07 04:56:10;;;;;;;11.80;7.57;;;17.50;99.90;;;;;;5089834;28;20480;-79
2023/09/07 04:58:36;;;;;;;10.23;7.40;;;17.50;99.90;;;;;;5080732;28;20044;-77
2023/09/07 05:01:05;;;;;;;11.27;7.07;;;17.50;99.90;;;;;;5083530;28;20534;-78
2023/09/07 05:03:31;;;;;;;10.20;7.63;;;17.50;99.90;;;;;;5089187;28;20040;-77
2023/09/07 05:05:57;;;;;;;10.68;7.20;;;17.50;99.90;;;;;;5086740;28;20119;-78
2023/09/07 05:08:24;;;;;;;9.88;7.43;;;17.40;99.90;;;;;;5091241;28;20035;-78
2023/09/07 05:10:55;;;;;;;12.25;7.70;;;17.50;99.90;;;;;;5091798;28;20048;-78
2023/09/07 05:13:21;;;;;;;13.50;7.53;;;17.40;99.90;;;;;;5097620;28;20052;-79
2023/09/07 05:15:51;;;;;;;10.07;7.80;;;17.50;99.90;;;;;;5091246;28;20467;-78
2023/09/07 05:18:18;;;;;;;11.25;7.93;;;17.50;99.90;;;;;;5077277;28;20094;-77
2023/09/07 05:20:51;;;;;;;13.30;7.78;;;17.40;99.90;;;;;;5077312;28;20059;-78
2023/09/07 05:23:19;;;;;;;14.07;7.75;;;17.50;99.90;;;;;;5085958;28;20060;-78
2023/09/07 05:25:45;;;;;;;8.35;7.43;;;17.40;99.90;;;;;;5091962;28;20044;-78
2023/09/07 05:28:12;;;;;;;13.70;7.32;;;17.50;99.90;;;;;;5090595;28;20177;-78
2023/09/07 05:30:38;;;;;;;9.15;8.00;;;17.50;99.90;;;;;;5108943;27;20131;-78
2023/09/07 05:33:04;;;;;;;12.52;8.00;;;17.50;99.90;;;;;;5085904;28;20074;-78
2023/09/07 05:35:32;;;;;;;13.40;7.57;;;17.50;99.90;;;;;;5088361;28;20444;-79
2023/09/07 05:37:58;;;;;;;21.45;8.75;;;17.50;99.90;;;;;;5084228;28;20036;-78
2023/09/07 05:40:24;;;;;;;13.60;7.60;;;17.50;99.90;;;;;;5082939;28;20040;-78
2023/09/07 05:42:50;;;;;;;12.40;7.93;;;17.50;99.90;;;;;;5085012;28;20261;-77
2023/09/07 05:45:15;;;;;;;11.35;7.60;;;17.50;99.90;;;;;;5088009;28;20024;-78
2023/09/07 05:47:41;;;;;;;13.98;8.45;;;17.60;99.90;;;;;;5085283;28;20047;-78
2023/09/07 05:50:07;;;;;;;12.20;7.70;;;17.60;99.90;;;;;;5082181;28;20043;-78
2023/09/07 05:52:33;;;;;;;10.18;7.70;;;17.60;99.90;;;;;;5085835;28;20048;-78
2023/09/07 05:54:58;;;;;;;11.82;8.93;;;17.60;99.90;;;;;;5079949;28;20355;-78
2023/09/07 05:57:24;;;;;;;12.50;8.52;;;17.60;99.90;;;;;;5090234;28;20047;-78
2023/09/07 05:59:50;;;;;;;13.80;8.93;;;17.70;99.90;;;;;;5087085;28;20032;-78
2023/09/07 06:02:15;;;;;;;10.30;8.02;;;17.70;99.90;;;;;;5089303;28;20033;-78
2023/09/07 06:04:41;;;;;;;14.32;8.20;;;17.70;99.90;;;;;;5082124;28;20448;-78
2023/09/07 06:07:07;;;;;;;11.32;7.85;;;17.80;99.90;;;;;;5097288;28;20048;-78
2023/09/07 06:09:32;;;;;;;14.57;7.95;;;17.80;99.90;;;;;;5084024;28;20040;-78
2023/09/07 06:11:58;;;;;;;9.77;8.23;;;17.90;99.90;;;;;;5090886;28;20115;-78
2023/09/07 06:14:23;;;;;;;12.35;7.45;;;17.90;99.90;;;;;;5078327;28;20037;-78
2023/09/07 06:16:49;;;;;;;11.23;7.68;;;18.00;99.90;;;;;;5091245;28;20090;-79
2023/09/07 06:19:15;;;;;;;11.07;7.78;;;18.10;99.90;;;;;;5081819;28;20076;-77
2023/09/07 06:21:41;;;;;;;8.68;6.97;;;18.20;99.90;;;;;;5089695;28;20063;-78
2023/09/07 06:24:07;;;;;;;12.40;7.82;;;18.30;99.90;;;;;;5083505;28;20055;-78
2023/09/07 06:26:33;;;;;;;11.70;7.82;;;18.40;99.90;;;;;;5084455;28;20098;-78
2023/09/07 06:28:59;;;;;;;10.75;7.72;;;18.50;99.90;;;;;;5084817;28;20401;-77
2023/09/07 06:31:24;;;;;;;8.82;7.57;;;18.60;99.90;;;;;;5082577;28;20036;-77
2023/09/07 06:33:50;;;;;;;9.02;7.53;;;18.90;99.90;;;;;;5084285;28;20370;-78
2023/09/07 06:36:15;;;;;;;9.85;7.43;;;19.40;99.90;;;;;;5090549;28;20048;-79
2023/09/07 06:38:41;;;;;;;10.70;7.60;;;19.90;99.90;;;;;;5094450;28;20128;-78
2023/09/07 06:41:09;;;;;;;9.50;6.93;;;20.10;99.90;;;;;;5089005;28;20062;-79
2023/09/07 06:43:34;;;;;;;;;;;20.20;99.90;;;;;;5073478;28;20157;-77
2023/09/07 06:46:08;;;;;;;11.07;7.22;;;20.40;99.90;;;;;;5091007;28;19928;-77
2023/09/07 06:48:35;;;;;;;11.02;7.50;;;20.70;99.90;;;;;;5083400;28;20047;-78
2023/09/07 06:51:05;;;;;;;10.45;7.20;;;20.90;99.90;;;;;;5091996;28;20054;-77
2023/09/07 06:53:31;;;;;;;10.10;7.40;;;20.90;99.90;;;;;;5082515;28;20048;-78
2023/09/07 06:56:01;;;;;;;14.98;7.18;;;20.90;99.90;;;;;;5097138;28;20120;-78
2023/09/07 06:58:27;;;;;;;12.43;7.05;;;21.00;99.90;;;;;;5083762;28;20032;-78
2023/09/07 07:00:56;;;;;;;10.30;7.07;;;21.30;99.90;;;;;;5093572;28;20051;-79
2023/09/07 07:03:22;;;;;;;11.80;6.72;;;21.60;99.90;;;;;;5090018;28;20037;-78
2023/09/07 07:05:51;;;;;;;10.43;6.30;;;22.00;99.90;;;;;;5097246;28;20055;-77
2023/09/07 07:08:17;;;;;;;13.85;6.45;;;22.40;99.90;;;;;;5085240;28;20036;-78
2023/09/07 07:10:43;;;;;;;9.52;6.30;;;22.40;99.90;;;;;;5091416;28;20488;-78
2023/09/07 07:13:11;;;;;;;9.45;7.05;;;22.40;99.90;;;;;;5088621;28;20105;-78
2023/09/07 07:15:37;;;;;;;11.02;6.72;;;22.20;99.90;;;;;;5084268;28;20040;-78
2023/09/07 07:18:08;;;;;;;14.75;6.75;;;22.20;99.90;;;;;;5087206;28;20113;-79
2023/09/07 07:20:38;;;;;;;8.68;6.93;;;22.10;99.90;;;;;;5085980;28;20414;-79
2023/09/07 07:23:06;;;;;;;10.43;6.57;;;22.00;99.90;;;;;;5104353;28;20185;-79
2023/09/07 07:25:33;;;;;;;;;;;22.10;99.90;;;;;;5101297;28;20047;-80
2023/09/07 07:28:05;;;;;;;9.63;6.13;;;22.10;99.90;;;;;;5085978;28;20095;-78
2023/09/07 07:30:31;;;;;;;9.27;6.35;;;22.10;99.90;;;;;;5081788;28;20134;-79
2023/09/07 07:32:57;;;;;;;10.23;6.10;;;22.10;99.90;;;;;;5099892;28;20487;-80
2023/09/07 07:35:23;;;;;;;8.45;5.95;;;22.20;99.90;;;;;;5098844;28;20101;-79
2023/09/07 07:37:50;;;;;;;8.65;6.20;;;22.20;99.90;;;;;;5086678;28;20039;-80
2023/09/07 07:40:17;;;;;;;9.77;5.85;;;22.20;99.90;;;;;;5098933;28;20636;-80
2023/09/07 07:42:43;;;;;;;10.60;6.35;;;22.30;99.90;;;;;;5096405;28;20048;-78
2023/09/07 07:45:12;;;;;;;8.13;6.05;;;22.40;99.90;;;;;;5082475;28;20063;-79
2023/09/07 07:47:39;;;;;;;7.53;6.28;;;22.50;99.90;;;;;;5095019;28;20490;-78
2023/09/07 07:50:05;;;;;;;9.40;6.32;;;22.50;99.90;;;;;;5084419;28;20502;-78
2023/09/07 07:52:31;;;;;;;13.25;6.72;;;22.50;99.90;;;;;;5080309;28;20048;-78
2023/09/07 07:54:57;;;;;;;11.23;6.90;;;22.50;99.90;;;;;;5122020;27;20040;-78
2023/09/07 07:57:23;;;;;;;9.73;6.03;;;22.60;99.90;;;;;;5092962;28;20036;-77
2023/09/07 07:59:48;;;;;;;7.60;6.15;;;22.70;99.90;;;;;;5079296;28;20450;-79
2023/09/07 08:02:14;;;;;;;8.82;5.90;;;22.80;99.90;;;;;;5076282;28;20401;-78
2023/09/07 08:04:40;;;;;;;8.70;6.10;;;23.00;99.90;;;;;;5088241;28;20044;-78
2023/09/07 08:07:08;;;;;;;13.20;6.10;;;23.10;99.90;;;;;;5089247;28;20071;-78
2023/09/07 08:09:34;;;;;;;;;;;23.30;99.90;;;;;;5083346;28;20102;-77
2023/09/07 08:12:02;;;;;;;10.55;5.65;;;23.40;99.90;;;;;;5092480;28;19920;-79
2023/09/07 08:14:28;;;;;;;10.50;6.43;;;23.50;99.90;;;;;;5087172;28;20049;-78
2023/09/07 08:16:54;;;;;;;13.02;6.25;;;23.60;99.90;;;;;;5083864;28;20051;-77
2023/09/07 08:19:20;;;;;;;13.00;5.68;;;23.70;99.90;;;;;;5092702;28;20437;-77
2023/09/07 08:21:46;;;;;;;9.48;6.35;;;23.90;99.90;;;;;;5088139;28;20048;-77
2023/09/07 08:24:12;;;;;;;12.77;5.93;;;24.00;99.90;;;;;;5086473;28;20043;-77
2023/09/07 08:26:38;;;;;;;12.43;6.40;;;24.10;99.90;;;;;;5080199;28;20147;-77
2023/09/07 08:29:05;;;;;;;9.07;5.55;;;24.30;99.90;;;;;;5088365;28;20076;-78
2023/09/07 08:31:40;;;;;;;10.43;6.70;;;24.40;99.90;;;;;;5090639;28;20414;-78
2023/09/07 08:34:13;;;;;;;11.30;6.53;;;24.60;99.90;;;;;;5077635;28;20109;-78
2023/09/07 08:36:38;;;;;;;7.65;5.70;;;24.60;99.90;;;;;;5084746;28;20044;-78
2023/09/07 08:39:10;;;;;;;9.38;5.43;;;24.60;99.90;;;;;;5090379;28;20044;-78
2023/09/07 08:41:45;;;;;;;13.70;5.88;;;24.70;99.90;;;;;;5086830;28;20052;-77
2023/09/07 08:44:11;;;;;;;17.35;6.10;;;24.80;99.90;;;;;;5082141;28;20040;-76
2023/09/07 08:46:37;;;;;;;7.35;5.25;;;25.00;99.90;;;;;;5082093;28;20156;-78
2023/09/07 08:49:04;;;;;;;29.98;6.85;;;25.10;99.90;;;;;;5088945;28;20072;-78
2023/09/07 08:51:32;;;;;;;12.57;5.05;;;25.10;99.90;;;;;;5089315;28;20483;-79
2023/09/07 08:53:58;;;;;;;9.73;5.82;;;25.20;99.90;;;;;;5081177;28;20485;-80
2023/09/07 08:56:24;;;;;;;8.85;5.47;;;25.30;99.90;;;;;;5086664;28;20044;-79
2023/09/07 08:58:50;;;;;;;10.25;5.57;;;25.40;99.90;;;;;;5084940;28;20051;-78
2023/09/07 09:01:17;;;;;;;7.47;5.50;;;25.40;99.90;;;;;;5080513;28;20032;-78
2023/09/07 09:03:43;;;;;;;8.18;4.75;;;25.40;99.90;;;;;;5083526;28;20406;-77
2023/09/07 09:06:09;;;;;;;7.72;5.18;;;25.60;99.90;;;;;;5077144;28;20047;-78
2023/09/07 09:08:52;;;;;;;8.07;4.85;;;25.70;99.90;;;;;;5075376;28;20044;-78
2023/09/07 09:11:19;;;;;;;9.93;5.18;;;25.80;99.90;;;;;;5083226;28;20440;-77
2023/09/07 09:13:46;;;;;;;9.77;4.82;;;25.80;99.90;;;;;;5088121;28;20565;-78
2023/09/07 09:16:14;;;;;;;10.95;5.00;;;26.00;99.90;;;;;;5095641;28;20053;-79
2023/09/07 09:18:54;;;;;;;9.55;4.38;;;26.10;99.90;;;;;;5079320;28;20128;-76
2023/09/07 09:21:24;;;;;;;10.07;5.05;;;26.20;99.90;;;;;;5076607;28;20485;-77
2023/09/07 09:23:56;;;;;;;7.88;4.57;;;26.30;99.90;;;;;;5078965;28;20049;-77
2023/09/07 09:26:23;;;;;;;7.63;4.50;;;26.40;99.90;;;;;;5097579;28;20048;-78
2023/09/07 09:28:52;;;;;;;7.95;4.13;;;26.50;99.50;;;;;;5092257;28;20043;-78
2023/09/07 09:31:17;;;;;;;6.38;4.25;;;26.60;98.80;;;;;;5074509;28;20043;-77
2023/09/07 09:33:48;;;;;;;6.03;3.95;;;26.70;98.10;;;;;;5091055;28;20036;-76
2023/09/07 09:36:14;;;;;;;7.20;4.20;;;26.80;97.20;;;;;;5082063;28;20048;-76
2023/09/07 09:38:40;;;;;;;11.02;4.50;;;26.90;97.30;;;;;;5076703;28;20039;-76
2023/09/07 09:41:07;;;;;;;6.75;4.85;;;27.00;96.60;;;;;;5084752;28;20037;-77
2023/09/07 09:43:33;;;;;;;9.50;3.90;;;27.00;96.00;;;;;;5079472;28;20169;-76
2023/09/07 09:46:00;;;;;;;8.07;4.22;;;27.20;95.90;;;;;;5080428;28;20530;-76
2023/09/07 09:48:28;;;;;;;5.25;3.80;;;27.30;96.30;;;;;;5083059;28;20389;-76
2023/09/07 09:50:54;;;;;;;12.82;4.07;;;27.40;95.70;;;;;;5083318;28;20047;-77
2023/09/07 09:53:20;;;;;;;7.07;4.32;;;27.50;95.70;;;;;;5075297;28;20063;-75
2023/09/07 09:55:47;;;;;;;6.38;4.05;;;27.70;95.40;;;;;;5090443;28;20097;-76
2023/09/07 09:58:16;;;;;;;6.63;3.57;;;27.70;94.90;;;;;;5092476;28;20048;-76
2023/09/07 10:00:55;;;;;;;7.93;4.57;;;27.80;95.00;;;;;;5073111;28;20039;-77
2023/09/07 10:03:28;;;;;;;6.43;3.70;;;27.90;93.90;;;;;;5079860;28;20075;-75
2023/09/07 10:05:53;;;;;;;6.95;3.88;;;28.00;93.60;;;;;;5094381;28;20044;-77
2023/09/07 10:08:22;;;;;;;9.73;4.18;;;28.10;93.50;;;;;;5077887;28;20374;-76
2023/09/07 10:10:53;;;;;;;10.88;4.25;;;28.10;93.10;;;;;;5081106;28;20036;-76
2023/09/07 10:13:33;;;;;;;7.45;3.42;;;28.20;92.00;;;;;;5091384;28;20043;-75
2023/09/07 10:16:09;;;;;;;6.35;3.67;;;28.40;93.10;;;;;;5082501;28;20123;-77
2023/09/07 10:18:37;;;;;;;4.97;3.63;;;28.40;92.20;;;;;;5085927;28;20048;-77
2023/09/07 10:21:03;;;;;;;9.95;4.20;;;28.50;92.80;;;;;;5096913;28;20048;-76
2023/09/07 10:23:55;;;;;;;7.18;3.63;;;28.60;92.90;;;;;;5098084;28;20383;-77
2023/09/07 10:26:21;;;;;;;7.75;4.00;;;28.80;92.00;;;;;;5089186;28;20134;-76
2023/09/07 10:28:58;;;;;;;7.40;4.15;;;28.90;92.10;;;;;;5079341;28;20128;-76
2023/09/07 10:31:25;;;;;;;8.65;3.90;;;29.10;91.80;;;;;;5088704;28;20045;-76
2023/09/07 10:33:52;;;;;;;7.95;4.32;;;29.20;91.70;;;;;;5094765;28;20113;-75
2023/09/07 10:36:23;;;;;;;9.30;3.70;;;29.40;91.60;;;;;;5084545;28;20474;-77
2023/09/07 10:38:49;;;;;;;7.93;3.90;;;29.50;91.10;;;;;;5101318;28;20046;-76
2023/09/07 10:41:15;;;;;;;8.38;4.18;;;29.60;91.10;;;;;;5095208;28;20114;-76
2023/09/07 10:43:51;;;;;;;8.40;3.55;;;29.60;90.10;;;;;;5099771;28;20044;-76
2023/09/07 10:46:22;;;;;;;14.95;4.00;;;29.80;90.60;;;;;;5087917;28;20036;-76
2023/09/07 10:48:56;;;;;;;7.50;3.80;;;29.80;90.10;;;;;;5093857;28;20048;-75
2023/09/07 10:51:22;;;;;;;24.77;3.70;;;29.70;87.20;;;;;;5091699;28;20105;-77
2023/09/07 10:53:47;;;;;;;8.90;3.78;;;30.00;89.80;;;;;;5077896;28;20576;-78
2023/09/07 10:56:13;;;;;;;7.78;3.40;;;30.00;88.10;;;;;;5091232;28;20040;-76
2023/09/07 10:58:41;;;;;;;7.50;3.80;;;30.10;87.20;;;;;;5090275;28;20044;-75
2023/09/07 11:01:07;;;;;;;6.25;3.80;;;30.20;87.30;;;;;;5095619;28;20055;-76
2023/09/07 11:03:33;;;;;;;9.90;3.92;;;30.40;87.40;;;;;;5095288;28;20046;-77
2023/09/07 11:06:19;;;;;;;7.37;4.10;;;30.70;88.40;;;;;;5089917;28;20043;-77
2023/09/07 11:08:46;;;;;;;13.93;3.70;;;30.90;85.30;;;;;;5091530;28;20072;-77
2023/09/07 11:11:12;;;;;;;8.35;3.80;;;30.90;84.70;;;;;;5088207;28;20040;-77
2023/09/07 11:13:38;;;;;;;6.63;3.80;;;31.10;84.30;;;;;;5077331;28;20083;-75
2023/09/07 11:16:07;;;;;;;5.77;3.80;;;31.20;82.60;;;;;;5088106;28;20063;-76
2023/09/07 11:18:35;;;;;;;9.23;4.10;;;31.10;80.20;;;;;;5084025;28;20181;-76
2023/09/07 11:21:07;;;;;;;5.88;3.42;;;31.20;81.00;;;;;;5081140;28;20567;-78
2023/09/07 11:23:37;;;;;;;8.00;4.03;;;31.20;80.20;;;;;;5093280;28;20048;-76
2023/09/07 11:26:09;;;;;;;8.38;4.03;;;31.40;80.10;;;;;;5084386;28;20059;-76
2023/09/07 11:28:35;;;;;;;12.07;3.72;;;31.50;78.70;;;;;;5087445;28;20121;-75
2023/09/07 11:31:01;;;;;;;3.67;3.07;;;31.70;79.20;;;;;;5096281;28;20131;-77
2023/09/07 11:33:31;;;;;;;6.20;3.20;;;31.70;79.30;;;;;;5095791;28;20047;-76
2023/09/07 11:35:56;;;;;;;6.93;3.10;;;32.00;79.00;;;;;;5092947;28;20039;-76
2023/09/07 11:38:29;;;;;;;6.80;3.83;;;32.00;76.30;;;;;;5081124;28;20044;-76
2023/09/07 11:40:55;;;;;;;8.60;3.40;;;32.00;77.80;;;;;;5091784;28;20131;-77
2023/09/07 11:43:22;;;;;;;7.27;3.40;;;32.00;76.40;;;;;;5076856;28;20115;-76
2023/09/07 11:45:49;;;;;;;6.32;3.78;;;32.10;78.10;;;;;;5083574;28;20045;-75
2023/09/07 11:48:15;;;;;;;10.20;3.38;;;32.30;77.10;;;;;;5075215;28;20047;-77
2023/09/07 11:50:41;;;;;;;7.80;3.60;;;32.40;75.90;;;;;;5095587;28;20032;-76
2023/09/07 11:53:07;;;;;;;10.93;3.43;;;32.30;75.20;;;;;;5087412;28;20052;-76
2023/09/07 11:55:34;;;;;;;7.38;3.80;;;32.20;75.00;;;;;;5079667;28;20393;-77
2023/09/07 11:58:01;;;;;;;4.53;3.65;;;32.10;74.40;;;;;;5084629;28;20049;-76
2023/09/07 12:00:28;;;;;;;9.48;3.75;;;32.00;74.80;;;;;;5074019;28;20106;-76
2023/09/07 12:02:53;;;;;;;9.90;3.72;;;31.90;75.60;;;;;;5107284;28;20127;-75
2023/09/07 12:05:19;;;;;;;8.20;3.60;;;32.10;75.60;;;;;;5085261;28;20116;-76
2023/09/07 12:07:45;;;;;;;10.07;3.80;;;32.10;75.70;;;;;;5092210;28;20054;-75
2023/09/07 12:10:13;;;;;;;11.27;3.27;;;32.30;75.60;;;;;;5094842;28;20399;-77
2023/09/07 12:12:43;;;;;;;9.45;3.30;;;32.60;76.50;;;;;;5091644;28;20389;-76
2023/09/07 12:15:13;;;;;;;11.48;3.72;;;32.90;73.40;;;;;;5083652;28;20486;-76
2023/09/07 12:17:39;;;;;;;10.52;4.13;;;32.90;73.80;;;;;;5081289;28;20560;-77
2023/09/07 12:20:09;;;;;;;4.93;3.50;;;32.90;73.00;;;;;;5087927;28;20087;-76
2023/09/07 12:22:35;;;;;;;5.47;2.80;;;32.80;72.10;;;;;;5086026;28;20052;-75
2023/09/07 12:25:01;;;;;;;;;;;32.80;73.70;;;;;;5091425;28;20406;-77
2023/09/07 12:27:27;;;;;;;4.93;3.40;;;33.10;74.10;;;;;;5084549;28;19999;-77
2023/09/07 12:29:52;;;;;;;7.97;4.03;;;33.10;71.80;;;;;;5092895;28;20036;-75
2023/09/07 12:32:18;;;;;;;6.20;3.30;;;32.90;71.80;;;;;;5086426;28;20039;-76
2023/09/07 12:34:43;;;;;;;9.33;3.60;;;33.10;72.30;;;;;;5096836;28;20040;-74
2023/09/07 12:37:09;;;;;;;8.20;3.90;;;33.10;72.90;;;;;;5095673;28;20040;-75
2023/09/07 12:39:35;;;;;;;5.03;3.90;;;33.00;70.70;;;;;;5078149;28;20518;-76
2023/09/07 12:42:03;;;;;;;10.57;3.77;;;32.90;71.70;;;;;;5091544;28;20035;-75
2023/09/07 12:44:28;;;;;;;7.97;3.45;;;33.00;71.70;;;;;;5091400;28;20044;-76